Station: Scherger  

  Atmospheric Gas Attenuation - ITU Rec 676-11   ----------------- dB/100km -----------------
Date Time Temp RH % AH g/m3 Dew Point Wind Direction Speed kph Gust kph Barometer mB Rainfall Since 9am 24GHz 47GHz 76GHz 122GHz 134GHz 241GHz
08/05 12:30 31.3 54 17.57 20.9 17 24 1010.1 0 37.3 34.6 64.8 171.5 186.5 648.5
08/05 12:20 31.2 54 17.47 20.8 20 28 1010.2 0 37.1 34.5 64.5 170.6 185.4 644.6
08/05 12:10 31.3 53 17.24 20.6 15 26 1010.4 0 36.7 34.1 63.5 167.9 182.1 633.0
08/05 12:00 31.5 56 18.41 21.7 13 22 1010.8 0 39.1 36.0 68.2 180.5 197.6 687.2
08/05 11:50 31.5 59 19.4 22.5 9 13 1010.9 0 41.1 37.7 72.5 191.8 211.5 735.6
08/05 11:40 30.5 55 17.14 20.7 19 22 1011.1 0 36.5 34.2 63.8 168.6 182.7 635.2
08/05 11:30 30.6 57 17.86 21.1 13 28 1011.4 0 38.0 35.4 66.7 176.5 192.4 668.8
08/05 11:20 31.4 60 19.62 22.7 13 17 1011.3 0 41.6 38.1 73.6 194.7 215.0 747.6
08/05 11:10 30.5 61 19.01 22.1 19 24 1011.5 0 40.4 37.5 71.8 189.9 208.8 726.0
08/05 11:00 30.6 61 19.11 22.2 15 24 1011.7 0 40.6 37.6 72.1 190.8 210.0 730.2
08/05 10:50 30.1 62 18.91 22 15 19 1011.8 0 40.3 37.5 71.7 189.7 208.6 725.0
08/05 10:40 30.3 63 19.42 22.5 13 15 1011.9 0 41.3 38.3 73.8 195.2 215.3 748.6
08/05 10:30 29.8 66 19.8 22.8 7 11 1011.9 0 42.1 39.2 76.0 201.0 222.3 772.9
08/05 10:20 29.4 68 19.96 22.9 7 7 1012.2 0 42.5 39.7 77.1 204.1 225.9 785.3
08/05 10:10 28.8 70 19.89 22.8 15 19 1012.2 0 42.4 39.8 77.4 204.8 226.7 787.9
08/05 10:00 28.8 71 20.17 23 13 20 1012.2 0 43.0 40.4 78.7 208.2 230.9 802.5
08/05 09:50 28.2 70 19.25 22.2 15 20 1012.3 0 41.2 39.0 75.1 198.7 218.9 760.9
08/05 09:40 27.8 72 19.37 22.3 11 15 1012.3 0 41.5 39.4 76.0 201.2 221.9 771.1
08/05 09:30 28 70 19.04 22.2 11 22 1012.3 0 40.7 38.7 74.3 196.6 216.4 752.1
08/05 09:20 27.2 74 19.26 22.2 15 20 1012.2 0 41.3 39.4 76.1 201.4 222.0 771.4
08/05 09:10 27.2 79 20.56 23.2 6 9 1012.1 0 44.0 41.9 82.2 217.6 241.9 840.5
08/05 09:00 26.4 79 19.67 22.5 11 19 1012.2 0 42.2 40.6 78.8 208.6 230.7 801.4
08/05 08:50 26.1 82 20.08 22.8 9 13 1012 0 43.1 41.5 81.1 214.6 237.9 826.6
08/05 08:40 25.3 83 19.43 22.2 11 17 1012 0 41.9 40.7 78.8 208.6 230.3 800.1
08/05 08:30 24.9 87 19.91 22.6 9 13 1012.3 0 42.9 41.8 81.6 215.9 239.2 830.7
08/05 08:20 24.3 89 19.69 22.4 11 11 1012.2 0 42.5 41.7 81.2 214.8 237.6 825.2
08/05 08:10 23.7 91 19.46 22.1 7 9 1012.2 0 42.1 41.5 80.7 213.5 235.9 819.1
08/05 08:00 23.3 94 19.65 22.3 7 11 1012.2 0 42.5 42.1 82.1 217.1 240.2 834.1
08/05 07:50 23 95 19.52 22.2 7 9 1012.1 0 42.3 42.0 81.7 216.3 239.0 830.1
08/05 07:40 22.6 97 19.48 22.1 6 7 1012.1 0 42.3 42.1 82.0 216.9 239.7 832.3
08/05 07:30 22.2 97 19.04 21.7 6 7 1012.2 0 41.4 41.4 80.2 212.3 233.9 812.0
08/05 07:20 21.8 97 18.61 21.3 4 6 1011.9 0 40.5 40.8 78.5 207.7 228.2 792.2
08/05 07:10 21.4 97 18.18 20.9 0 0 1011.8 0 39.6 40.1 76.8 203.2 222.5 772.4
08/05 07:00 21.2 97 17.97 20.7 6 7 1011.8 0 39.2 39.8 76.0 201.0 219.8 762.8
08/05 06:50 21.1 97 17.87 20.6 6 6 1011.6 0 39.0 39.7 75.6 200.0 218.5 758.2
08/05 06:40 21.2 97 17.97 20.7 4 6 1011.5 0 39.2 39.8 76.0 201.0 219.7 762.7
08/05 06:30 21.2 97 17.97 20.7 6 7 1011.6 0 39.2 39.8 76.0 201.0 219.8 762.7
08/05 06:20 21.3 97 18.08 20.8 6 7 1011.5 0 39.4 40.0 76.4 202.2 221.2 767.7
08/05 06:10 21.3 97 18.08 20.8 6 6 1011.5 0 39.4 40.0 76.4 202.2 221.2 767.7
08/05 06:00 21.4 97 18.18 20.9 7 9 1011.5 0 39.6 40.1 76.8 203.2 222.5 772.2
08/05 05:50 21.4 97 18.18 20.9 6 7 1011.3 0 39.6 40.1 76.8 203.1 222.5 772.1
08/05 05:40 21.4 97 18.18 20.9 6 7 1011.4 0 39.6 40.1 76.8 203.2 222.5 772.2
08/05 05:30 21.2 96 17.79 20.5 7 9 1011.3 0 38.8 39.4 75.1 198.6 216.9 752.7
08/05 05:20 21.5 96 18.1 20.8 6 7 1011.1 0 39.4 39.9 76.3 201.8 220.9 766.6
08/05 05:10 21.5 96 18.1 20.8 6 6 1011.1 0 39.4 39.9 76.3 201.8 220.9 766.6
08/05 05:00 21.7 96 18.31 21 6 9 1011 0 39.8 40.2 77.1 204.0 223.6 776.1
08/05 04:50 21.8 96 18.42 21.1 7 9 1011 0 40.1 40.4 77.5 205.1 225.0 781.1
08/05 04:40 21.6 96 18.21 20.9 6 7 1011.1 0 39.6 40.1 76.7 203.0 222.3 771.6
08/05 04:30 21.8 96 18.42 21.1 7 9 1011.1 0 40.1 40.4 77.6 205.1 225.0 781.2
08/05 04:20 21.6 96 18.21 20.9 7 7 1011 0 39.6 40.1 76.7 202.9 222.3 771.6
08/05 04:10 21.4 96 18 20.7 6 7 1011 0 39.2 39.7 75.9 200.8 219.5 762.0
08/05 04:00 21.2 96 17.79 20.5 6 7 1011.1 0 38.8 39.4 75.1 198.6 216.8 752.5
08/05 03:50 21.1 95 17.5 20.3 6 7 1011 0 38.2 38.9 73.8 195.1 212.5 737.6
08/05 03:40 21.2 95 17.6 20.4 0 0 1010.9 0 38.4 39.1 74.2 196.1 213.8 742.0
08/05 03:30 21.3 95 17.71 20.5 0 0 1011 0 38.6 39.2 74.6 197.3 215.3 747.1
08/05 03:20 21.4 95 17.81 20.6 0 0 1011 0 38.8 39.4 75.0 198.3 216.5 751.6
08/05 03:10 21.3 95 17.71 20.5 4 6 1011.1 0 38.6 39.2 74.6 197.3 215.3 747.2
08/05 03:00 21.5 95 17.91 20.7 2 6 1011.2 0 39.0 39.5 75.4 199.4 217.9 756.2
08/05 02:50 21.5 95 17.91 20.7 4 6 1011.1 0 39.0 39.5 75.4 199.4 217.8 756.1
08/05 02:40 21.5 95 17.91 20.7 0 0 1011.1 0 39.0 39.5 75.4 199.4 217.8 756.1
08/05 02:30 21.5 95 17.91 20.7 0 0 1011.3 0 39.0 39.5 75.4 199.4 217.9 756.2
08/05 02:20 21.5 95 17.91 20.7 0 0 1011.2 0 39.0 39.5 75.4 199.4 217.9 756.2
08/05 02:10 21.5 95 17.91 20.7 0 0 1011.3 0 39.0 39.5 75.4 199.4 217.9 756.2
08/05 02:00 21.6 95 18.02 20.8 0 0 1011.5 0 39.2 39.7 75.8 200.6 219.3 761.4
08/05 01:50 21.7 95 18.12 20.9 0 0 1011.5 0 39.4 39.9 76.2 201.6 220.6 765.9
08/05 01:40 21.9 94 18.14 20.9 0 0 1011.4 0 39.5 39.8 76.1 201.3 220.3 764.9
08/05 01:30 21.9 94 18.14 20.9 0 0 1011.7 0 39.5 39.8 76.1 201.3 220.4 765.0
08/05 01:20 21.9 93 17.94 20.7 0 0 1011.6 0 39.0 39.4 75.2 198.8 217.2 754.0
08/05 01:10 21.9 93 17.94 20.7 0 0 1011.7 0 39.0 39.4 75.2 198.8 217.2 754.1
08/05 01:00 22 94 18.24 21 0 0 1011.8 0 39.7 40.0 76.5 202.4 221.7 769.5
08/05 00:50 22 94 18.24 21 0 0 1011.8 0 39.7 40.0 76.5 202.4 221.7 769.5
08/05 00:40 22.1 93 18.15 20.9 0 0 1011.8 0 39.5 39.7 76.0 201.0 220.0 763.6
08/05 00:30 22.3 92 18.16 20.9 0 0 1012 0 39.5 39.7 75.8 200.6 219.6 762.2
08/05 00:20 22.4 92 18.27 21 0 0 1011.9 0 39.7 39.8 76.3 201.7 221.0 767.1
08/05 00:10 22.5 92 18.37 21.1 0 0 1011.9 0 39.9 40.0 76.6 202.7 222.3 771.6
08/05 00:00 22.5 92 18.37 21.1 0 0 1012.1 0 39.9 40.0 76.7 202.8 222.3 771.7
07/05 23:50 22.6 92 18.48 21.2 0 0 1012 0 40.1 40.1 77.1 203.9 223.7 776.7
07/05 23:40 22.7 91 18.38 21.2 0 0 1012.1 0 39.9 39.9 76.5 202.3 221.8 770.2
07/05 23:30 22.7 90 18.18 21 0 0 1012.2 0 39.5 39.5 75.5 199.8 218.7 759.4
07/05 23:20 22.9 90 18.39 21.2 0 0 1012.2 0 39.9 39.8 76.4 201.9 221.4 768.8
07/05 23:10 22.9 90 18.39 21.2 0 0 1012.2 0 39.9 39.8 76.4 201.9 221.4 768.8
07/05 23:00 23 89 18.29 21.1 0 0 1012.5 0 39.7 39.6 75.8 200.5 219.6 762.5
07/05 22:50 23.2 89 18.5 21.3 0 0 1012.4 0 40.1 39.9 76.6 202.6 222.3 771.8
07/05 22:40 23.5 88 18.61 21.4 0 0 1012.5 0 40.3 40.0 76.8 203.2 223.1 774.7
07/05 22:30 23.6 87 18.5 21.3 0 0 1012.7 0 40.0 39.7 76.2 201.6 221.1 767.8
07/05 22:20 23.8 86 18.5 21.3 0 0 1012.7 0 40.0 39.6 76.0 201.0 220.5 765.8
07/05 22:10 23.9 87 18.82 21.6 0 0 1012.8 0 40.7 40.2 77.4 204.8 225.2 782.2
07/05 22:00 23.9 87 18.82 21.6 0 0 1012.8 0 40.7 40.2 77.4 204.8 225.2 782.2
07/05 21:50 24 85 18.49 21.3 0 0 1012.6 0 40.0 39.5 75.7 200.3 219.8 763.2
07/05 21:40 24.1 85 18.6 21.4 0 0 1012.6 0 40.2 39.7 76.2 201.5 221.2 768.1
07/05 21:30 24.2 85 18.7 21.5 0 0 1012.6 0 40.4 39.8 76.5 202.5 222.4 772.5
07/05 21:20 24.3 85 18.81 21.6 0 0 1012.3 0 40.6 40.0 76.9 203.5 223.8 777.2
07/05 21:10 24.4 84 18.69 21.5 0 4 1012.4 0 40.4 39.7 76.3 201.8 221.7 769.8
07/05 21:00 24.7 84 19.01 21.8 0 0 1012.5 0 41.0 40.2 77.5 205.0 225.7 784.0
07/05 20:50 24.8 82 18.66 21.5 0 0 1012.3 0 40.3 39.5 75.7 200.3 220.0 764.1
07/05 20:40 25.1 80 18.52 21.4 0 0 1012.2 0 39.9 39.0 74.8 197.8 217.0 753.6
07/05 20:30 25.4 78 18.36 21.3 0 7 1012.2 0 39.6 38.6 73.7 195.0 213.7 742.2
07/05 20:20 25.7 75 17.96 20.9 0 2 1011.9 0 38.7 37.7 71.6 189.3 206.8 718.3
07/05 20:10 26 74 18.02 21 0 4 1011.7 0 38.8 37.7 71.6 189.3 206.8 718.4
07/05 20:00 26.1 73 17.87 20.9 4 7 1011.7 0 38.5 37.4 70.8 187.2 204.3 709.8

Last Refresh: 08-May-2026 12:08:28

Bureau of Meteorology